createdAt,value
2023-05-31T00:00:48.997Z,4.30
2023-05-31T00:03:06.013Z,4.60
2023-05-31T00:05:24.411Z,4.15
2023-05-31T00:07:41.492Z,3.80
2023-05-31T00:09:58.442Z,4.15
2023-05-31T00:12:15.422Z,4.30
2023-05-31T00:14:32.352Z,4.50
2023-05-31T00:17:27.029Z,4.55
2023-05-31T00:19:30.504Z,4.70
2023-05-31T00:21:47.546Z,4.43
2023-05-31T00:24:04.861Z,4.65
2023-05-31T00:26:21.785Z,4.00
2023-05-31T00:28:38.775Z,4.60
2023-05-31T00:30:56.838Z,4.03
2023-05-31T00:33:13.813Z,4.47
2023-05-31T00:35:33.083Z,4.53
2023-05-31T00:37:49.997Z,4.28
2023-05-31T00:40:07.323Z,4.55
2023-05-31T00:42:24.323Z,3.97
2023-05-31T00:44:41.266Z,4.00
2023-05-31T00:46:58.155Z,4.25
2023-05-31T00:49:15.136Z,3.90
2023-05-31T00:51:32.568Z,4.20
2023-05-31T00:53:49.510Z,4.07
2023-05-31T00:56:06.401Z,3.42
2023-05-31T00:58:23.347Z,4.40
2023-05-31T01:00:40.240Z,4.50
2023-05-31T01:02:57.186Z,4.60
2023-05-31T01:05:14.656Z,4.10
2023-05-31T01:07:31.632Z,4.05
2023-05-31T01:09:48.544Z,3.80
2023-05-31T01:12:05.491Z,4.22
2023-05-31T01:14:23.429Z,4.55
2023-05-31T01:16:40.481Z,4.35
2023-05-31T01:18:57.578Z,4.35
2023-05-31T01:21:14.477Z,4.22
2023-05-31T01:23:31.409Z,3.90
2023-05-31T01:25:50.514Z,4.30
2023-05-31T01:28:07.465Z,4.03
2023-05-31T01:30:24.621Z,4.20
2023-05-31T01:32:41.671Z,3.75
2023-05-31T01:34:59.688Z,4.03
2023-05-31T01:37:16.620Z,3.80
2023-05-31T01:39:33.525Z,4.18
2023-05-31T01:41:50.465Z,3.88
2023-05-31T01:44:07.441Z,4.03
2023-05-31T01:46:25.092Z,4.10
2023-05-31T01:48:42.326Z,3.63
2023-05-31T01:50:59.364Z,4.10
2023-05-31T01:53:16.452Z,3.85
2023-05-31T01:55:33.453Z,3.88
2023-05-31T01:57:51.862Z,3.95
2023-05-31T02:00:08.842Z,3.95
2023-05-31T02:02:26.485Z,3.25
2023-05-31T02:04:43.662Z,4.03
2023-05-31T02:07:04.358Z,3.80
2023-05-31T02:09:23.323Z,4.00
2023-05-31T02:11:40.280Z,3.70
2023-05-31T02:13:57.449Z,3.88
2023-05-31T02:16:15.420Z,4.10
2023-05-31T02:18:32.324Z,3.70
2023-05-31T02:20:49.400Z,4.00
2023-05-31T02:23:13.599Z,3.58
2023-05-31T02:25:30.519Z,4.05
2023-05-31T02:27:47.666Z,3.90
2023-05-31T02:30:07.496Z,3.50
2023-05-31T02:32:26.647Z,3.45
2023-05-31T02:34:43.614Z,3.42
2023-05-31T02:37:00.987Z,3.55
2023-05-31T02:39:17.944Z,3.88
2023-05-31T02:41:34.878Z,3.60
2023-05-31T02:43:52.322Z,3.53
2023-05-31T02:46:09.293Z,3.90
2023-05-31T02:48:26.344Z,3.85
2023-05-31T02:50:43.270Z,3.70
2023-05-31T02:53:00.254Z,3.40
2023-05-31T02:55:17.214Z,3.50
2023-05-31T02:57:38.250Z,3.47
2023-05-31T02:59:57.227Z,3.55
2023-05-31T03:02:14.744Z,3.88
2023-05-31T03:04:34.174Z,3.75
2023-05-31T03:09:22.005Z,3.80
2023-05-31T03:11:39.056Z,3.55
2023-05-31T03:13:56.258Z,3.90
2023-05-31T03:16:13.432Z,3.80
2023-05-31T03:18:30.761Z,3.80
2023-05-31T03:20:48.054Z,3.80
2023-05-31T03:23:06.180Z,3.72
2023-05-31T03:25:23.262Z,3.55
2023-05-31T03:27:40.316Z,3.83
2023-05-31T03:29:58.387Z,3.85
2023-05-31T03:32:18.018Z,3.60
2023-05-31T03:34:35.067Z,3.25
2023-05-31T03:36:53.092Z,3.80
2023-05-31T03:39:10.149Z,3.80
2023-05-31T03:41:28.171Z,3.75
2023-05-31T03:43:45.198Z,3.90
2023-05-31T03:46:02.352Z,4.20
2023-05-31T03:48:19.833Z,4.22
2023-05-31T03:50:36.799Z,3.75
2023-05-31T03:52:53.827Z,3.40
2023-05-31T03:55:10.798Z,3.75
2023-05-31T03:57:28.278Z,4.18
2023-05-31T03:59:45.328Z,4.20
2023-05-31T04:02:02.367Z,4.13
2023-05-31T04:04:20.155Z,3.97
2023-05-31T04:06:37.175Z,3.45
2023-05-31T04:08:54.174Z,4.63
2023-05-31T04:11:11.199Z,3.90
2023-05-31T04:13:28.177Z,3.75
2023-05-31T04:15:46.242Z,3.78
2023-05-31T04:18:03.265Z,4.03
2023-05-31T04:20:22.385Z,3.95
2023-05-31T04:22:39.331Z,3.90
2023-05-31T04:24:56.514Z,4.28
2023-05-31T04:27:13.432Z,3.90
2023-05-31T04:29:30.444Z,4.25
2023-05-31T04:31:52.082Z,3.88
2023-05-31T04:34:09.264Z,4.25
2023-05-31T04:36:26.191Z,4.00
2023-05-31T04:38:43.108Z,5.03
2023-05-31T04:41:00.195Z,4.32
2023-05-31T04:43:17.290Z,4.35
2023-05-31T04:45:34.787Z,4.53
2023-05-31T04:47:52.313Z,4.45
2023-05-31T04:50:09.723Z,4.10
2023-05-31T04:52:26.632Z,4.40
2023-05-31T04:54:43.568Z,3.97
2023-05-31T04:57:00.669Z,4.07
2023-05-31T04:59:17.606Z,4.55
2023-05-31T05:01:34.559Z,4.00
2023-05-31T05:03:52.121Z,3.95
2023-05-31T05:06:09.068Z,4.40
2023-05-31T05:08:25.987Z,4.43
2023-05-31T05:10:43.414Z,4.80
2023-05-31T05:13:00.353Z,4.20
2023-05-31T05:15:17.649Z,3.90
2023-05-31T05:17:35.076Z,4.07
2023-05-31T05:19:52.015Z,4.25
2023-05-31T05:22:08.897Z,4.15
2023-05-31T05:24:25.835Z,4.00
2023-05-31T05:26:42.819Z,4.00
2023-05-31T05:28:59.770Z,4.38
2023-05-31T05:31:17.218Z,4.57
2023-05-31T05:33:34.380Z,4.35
2023-05-31T05:35:51.740Z,4.63
2023-05-31T05:38:09.086Z,4.20
2023-05-31T05:40:26.021Z,4.40
2023-05-31T05:42:44.446Z,4.95
2023-05-31T05:45:01.867Z,4.00
2023-05-31T05:47:18.804Z,4.40
2023-05-31T05:49:35.743Z,4.20
2023-05-31T05:51:52.675Z,4.57
2023-05-31T05:54:10.050Z,4.10
2023-05-31T05:56:26.982Z,4.85
2023-05-31T05:58:43.857Z,4.22
2023-05-31T06:01:01.044Z,4.45
2023-05-31T06:03:18.259Z,4.38
2023-05-31T06:05:35.686Z,4.70
2023-05-31T06:07:52.632Z,4.65
2023-05-31T06:10:09.606Z,4.78
2023-05-31T06:12:26.509Z,4.57
2023-05-31T06:14:43.429Z,4.22
2023-05-31T06:17:00.411Z,4.35
2023-05-31T06:19:17.462Z,4.50
2023-05-31T06:21:34.371Z,3.95
2023-05-31T06:23:51.266Z,4.05
2023-05-31T06:26:08.148Z,4.30
2023-05-31T06:28:25.079Z,4.32
2023-05-31T06:30:41.996Z,5.18
2023-05-31T06:32:58.981Z,4.18
2023-05-31T06:35:15.910Z,3.95
2023-05-31T06:37:32.805Z,3.90
2023-05-31T06:39:49.710Z,3.70
2023-05-31T06:42:07.009Z,2.70
2023-05-31T06:44:23.907Z,3.15
2023-05-31T06:46:40.855Z,3.00
2023-05-31T06:49:08.269Z,2.50
2023-05-31T06:51:28.419Z,2.85
2023-05-31T06:53:45.309Z,2.85
2023-05-31T06:56:02.224Z,2.70
2023-05-31T06:58:19.177Z,2.88
2023-05-31T07:00:36.075Z,2.92
2023-05-31T07:02:52.978Z,2.85
2023-05-31T07:05:09.912Z,2.60
2023-05-31T07:07:26.830Z,3.05
2023-05-31T07:09:43.753Z,2.70
2023-05-31T07:12:00.705Z,2.55
2023-05-31T07:14:17.635Z,2.42
2023-05-31T07:16:35.094Z,2.60
2023-05-31T07:18:52.054Z,2.42
2023-05-31T07:21:08.954Z,2.70
2023-05-31T07:23:25.870Z,2.60
2023-05-31T07:25:44.348Z,2.70
2023-05-31T07:28:01.997Z,2.53
2023-05-31T07:30:18.935Z,2.70
2023-05-31T07:32:36.416Z,2.90
2023-05-31T07:35:02.419Z,2.58
2023-05-31T07:37:21.561Z,2.78
2023-05-31T07:39:38.428Z,2.58
2023-05-31T07:41:55.370Z,2.50
2023-05-31T07:44:12.312Z,2.45
2023-05-31T07:46:29.230Z,3.08
2023-05-31T07:48:46.185Z,2.40
2023-05-31T07:51:03.201Z,2.78
2023-05-31T07:53:20.107Z,2.70
2023-05-31T07:55:37.543Z,2.60
2023-05-31T07:57:54.493Z,2.72
2023-05-31T08:00:11.441Z,2.72
2023-05-31T08:02:28.437Z,2.33
2023-05-31T08:04:45.401Z,2.50
2023-05-31T08:07:02.270Z,2.45
2023-05-31T08:09:20.651Z,2.50
2023-05-31T08:11:37.592Z,2.40
2023-05-31T08:13:54.518Z,2.72
2023-05-31T08:16:11.451Z,2.50
2023-05-31T08:18:28.399Z,2.28
2023-05-31T08:20:45.370Z,2.38
2023-05-31T08:23:02.303Z,2.92
2023-05-31T08:25:19.192Z,2.55
2023-05-31T08:27:36.083Z,2.85
2023-05-31T08:29:53.004Z,2.55
2023-05-31T08:32:09.916Z,2.50
2023-05-31T08:34:27.178Z,2.88
2023-05-31T08:36:44.103Z,2.45
2023-05-31T08:39:01.477Z,2.70
2023-05-31T08:41:18.384Z,2.60
2023-05-31T08:43:35.792Z,2.40
2023-05-31T08:45:52.681Z,3.00
2023-05-31T08:48:09.915Z,3.45
2023-05-31T08:50:26.893Z,2.83
2023-05-31T08:52:43.841Z,2.83
2023-05-31T08:55:01.327Z,2.63
2023-05-31T08:57:18.264Z,2.90
2023-05-31T08:59:35.149Z,2.60
2023-05-31T09:01:52.105Z,2.38
2023-05-31T09:04:09.452Z,2.30
2023-05-31T09:06:26.341Z,2.65
2023-05-31T09:08:43.279Z,2.50
2023-05-31T09:11:00.510Z,2.38
2023-05-31T09:13:17.747Z,2.38
2023-05-31T09:15:34.779Z,2.50
2023-05-31T09:17:51.857Z,2.55
2023-05-31T09:20:08.856Z,2.63
2023-05-31T09:22:25.828Z,2.55
2023-05-31T09:24:42.709Z,2.47
2023-05-31T09:26:59.577Z,2.40
2023-05-31T09:29:16.458Z,2.90
2023-05-31T09:31:33.422Z,2.90
2023-05-31T09:33:50.372Z,2.63
2023-05-31T09:36:07.284Z,2.60
2023-05-31T09:38:25.290Z,2.60
2023-05-31T09:40:43.138Z,2.67
2023-05-31T09:43:00.030Z,2.33
2023-05-31T09:45:17.410Z,2.38
2023-05-31T09:47:34.340Z,2.35
2023-05-31T09:49:51.296Z,2.72
2023-05-31T09:52:08.706Z,2.70
2023-05-31T09:54:27.717Z,2.80
2023-05-31T09:56:45.505Z,2.50
2023-05-31T09:59:02.410Z,2.60
2023-05-31T10:01:19.361Z,3.00
2023-05-31T10:03:36.817Z,2.22
2023-05-31T10:05:53.792Z,2.53
2023-05-31T10:08:10.763Z,2.35
2023-05-31T10:10:28.191Z,2.50
2023-05-31T10:12:45.097Z,2.80
2023-05-31T10:15:01.990Z,2.47
2023-05-31T10:17:18.928Z,2.63
2023-05-31T10:19:35.924Z,2.67
2023-05-31T10:21:52.829Z,2.40
2023-05-31T10:24:09.745Z,2.60
2023-05-31T10:26:26.681Z,2.80
2023-05-31T10:28:43.578Z,2.60
2023-05-31T10:31:00.697Z,2.63
2023-05-31T10:33:17.813Z,2.60
2023-05-31T10:35:34.746Z,2.10
2023-05-31T10:37:51.663Z,2.30
2023-05-31T10:40:08.569Z,2.47
2023-05-31T10:42:25.476Z,2.38
2023-05-31T10:44:42.378Z,2.30
2023-05-31T10:46:59.364Z,2.38
2023-05-31T10:49:16.288Z,2.40
2023-05-31T10:51:33.360Z,2.30
2023-05-31T10:53:50.291Z,2.33
2023-05-31T10:56:07.688Z,2.40
2023-05-31T10:58:24.599Z,2.72
2023-05-31T11:00:41.593Z,2.20
2023-05-31T11:02:58.629Z,2.22
2023-05-31T11:05:15.585Z,2.80
2023-05-31T11:07:32.499Z,2.35
2023-05-31T11:09:49.431Z,2.50
2023-05-31T11:12:06.846Z,2.80
2023-05-31T11:14:23.758Z,2.20
2023-05-31T11:16:40.693Z,2.47
2023-05-31T11:18:57.630Z,2.33
2023-05-31T11:21:15.045Z,2.60
2023-05-31T11:23:32.124Z,2.60
2023-05-31T11:25:49.102Z,2.30
2023-05-31T11:28:06.028Z,2.80
2023-05-31T11:30:22.978Z,2.95
2023-05-31T11:32:39.917Z,2.78
2023-05-31T11:34:56.861Z,2.63
2023-05-31T11:37:13.742Z,2.80
2023-05-31T11:39:30.653Z,2.78
2023-05-31T11:41:47.578Z,2.25
2023-05-31T11:44:04.514Z,2.25
2023-05-31T11:46:21.428Z,2.47
2023-05-31T11:48:38.436Z,2.50
2023-05-31T11:50:55.481Z,2.70
2023-05-31T11:53:12.365Z,2.70
2023-05-31T11:55:29.753Z,2.50
2023-05-31T11:57:47.174Z,2.80
2023-05-31T12:00:04.123Z,2.20
2023-05-31T12:02:21.569Z,2.50
2023-05-31T12:04:38.559Z,2.40
2023-05-31T12:06:56.106Z,2.30
2023-05-31T12:09:13.087Z,1.98
2023-05-31T12:11:29.963Z,2.38
2023-05-31T12:13:46.845Z,2.25
2023-05-31T12:16:04.027Z,2.40
2023-05-31T12:18:21.010Z,2.50
2023-05-31T12:20:37.993Z,2.55
2023-05-31T12:22:54.940Z,2.20
2023-05-31T12:25:12.392Z,2.40
2023-05-31T12:27:41.053Z,2.35
2023-05-31T12:30:01.977Z,2.05
2023-05-31T12:32:18.916Z,2.20
2023-05-31T12:34:35.858Z,2.50
2023-05-31T12:36:52.754Z,2.42
2023-05-31T12:39:09.666Z,2.40
2023-05-31T12:41:26.554Z,2.28
2023-05-31T12:43:43.493Z,2.33
2023-05-31T12:46:00.452Z,2.50
2023-05-31T12:48:17.454Z,2.20
2023-05-31T12:50:34.487Z,2.42
2023-05-31T12:52:51.899Z,2.25
2023-05-31T12:55:08.811Z,2.33
2023-05-31T12:57:25.737Z,2.20
2023-05-31T12:59:42.661Z,2.25
2023-05-31T13:02:00.259Z,2.60
2023-05-31T13:04:17.768Z,2.40
2023-05-31T13:06:34.683Z,2.03
2023-05-31T13:08:51.606Z,2.17
2023-05-31T13:11:08.522Z,1.90
2023-05-31T13:13:25.409Z,2.13
2023-05-31T13:15:42.318Z,2.42
2023-05-31T13:17:59.716Z,1.83
2023-05-31T13:20:16.840Z,1.90
2023-05-31T13:22:33.773Z,1.88
2023-05-31T13:24:50.666Z,2.13
2023-05-31T13:27:07.582Z,2.00
2023-05-31T13:29:24.522Z,2.25
2023-05-31T13:31:41.498Z,2.05
2023-05-31T13:33:58.939Z,2.20
2023-05-31T13:36:15.880Z,2.10
2023-05-31T13:38:32.810Z,1.88
2023-05-31T13:40:50.051Z,1.92
2023-05-31T13:43:06.942Z,1.92
2023-05-31T13:45:23.855Z,2.22
2023-05-31T13:47:40.849Z,1.90
2023-05-31T13:49:57.803Z,1.98
2023-05-31T13:52:14.965Z,2.00
2023-05-31T13:54:32.151Z,2.10
2023-05-31T13:56:49.489Z,2.13
2023-05-31T13:59:06.395Z,2.17
2023-05-31T14:01:23.339Z,2.15
2023-05-31T14:03:40.404Z,2.00
2023-05-31T14:05:57.429Z,1.88
2023-05-31T14:08:14.503Z,2.30
2023-05-31T14:10:31.441Z,1.90
2023-05-31T14:12:48.413Z,1.95
2023-05-31T14:15:05.384Z,1.80
2023-05-31T14:17:22.301Z,2.30
2023-05-31T14:19:39.233Z,1.80
2023-05-31T14:21:56.648Z,1.88
2023-05-31T14:24:15.178Z,2.03
2023-05-31T14:26:33.522Z,1.80
2023-05-31T14:28:50.462Z,1.92
2023-05-31T14:31:07.428Z,2.05
2023-05-31T14:33:24.374Z,1.90
2023-05-31T14:35:41.674Z,2.03
2023-05-31T14:38:15.779Z,1.90
2023-05-31T14:40:35.797Z,2.08
2023-05-31T14:42:52.801Z,1.92
2023-05-31T14:45:09.754Z,1.92
2023-05-31T14:47:26.637Z,2.13
2023-05-31T14:49:44.005Z,1.83
2023-05-31T14:52:00.918Z,1.70
2023-05-31T14:54:17.820Z,2.03
2023-05-31T14:56:34.725Z,2.00
2023-05-31T14:58:51.578Z,1.80
2023-05-31T15:01:08.546Z,2.10
2023-05-31T15:03:25.545Z,2.22
2023-05-31T15:05:42.469Z,2.00
2023-05-31T15:07:59.370Z,2.00
2023-05-31T15:10:16.283Z,1.40
2023-05-31T15:12:33.206Z,2.20
2023-05-31T15:14:50.107Z,2.00
2023-05-31T15:17:07.005Z,1.80
2023-05-31T15:19:23.941Z,1.80
2023-05-31T15:21:40.887Z,1.90
2023-05-31T15:23:57.845Z,1.60
2023-05-31T15:26:14.767Z,1.83
2023-05-31T15:28:31.776Z,1.75
2023-05-31T15:30:48.675Z,1.90
2023-05-31T15:33:05.638Z,2.10
2023-05-31T15:35:22.579Z,2.15
2023-05-31T15:37:39.494Z,1.63
2023-05-31T15:39:56.387Z,1.85
2023-05-31T15:42:13.307Z,1.80
2023-05-31T15:44:30.237Z,1.98
2023-05-31T15:46:47.224Z,1.95
2023-05-31T15:49:04.230Z,1.70
2023-05-31T15:51:21.123Z,1.73
2023-05-31T15:53:38.476Z,1.83
2023-05-31T15:55:55.422Z,1.90
2023-05-31T15:58:12.333Z,2.03
2023-05-31T16:00:29.261Z,1.65
2023-05-31T16:02:46.264Z,1.85
2023-05-31T16:05:03.244Z,1.90
2023-05-31T16:07:20.595Z,1.88
2023-05-31T16:09:37.522Z,1.73
2023-05-31T16:11:54.437Z,2.15
2023-05-31T16:14:11.397Z,2.20
2023-05-31T16:16:28.332Z,2.17
2023-05-31T16:18:45.745Z,2.03
2023-05-31T16:21:02.834Z,1.90
2023-05-31T16:23:19.929Z,2.00
2023-05-31T16:25:37.354Z,2.00
2023-05-31T16:27:54.269Z,2.20
2023-05-31T16:30:11.163Z,2.00
2023-05-31T16:32:28.139Z,2.08
2023-05-31T16:34:45.491Z,1.92
2023-05-31T16:37:02.383Z,1.80
2023-05-31T16:39:19.304Z,1.83
2023-05-31T16:41:36.308Z,1.77
2023-05-31T16:43:53.247Z,2.10
2023-05-31T16:46:10.201Z,2.10
2023-05-31T16:48:27.098Z,2.20
2023-05-31T16:50:44.590Z,2.03
2023-05-31T16:53:01.449Z,1.85
2023-05-31T16:55:18.765Z,1.80
2023-05-31T16:57:35.694Z,1.92
2023-05-31T16:59:52.696Z,1.98
2023-05-31T17:02:09.750Z,2.03
2023-05-31T17:04:26.785Z,1.88
2023-05-31T17:06:43.728Z,2.00
2023-05-31T17:09:00.817Z,1.98
2023-05-31T17:11:17.753Z,1.92
2023-05-31T17:13:34.692Z,2.10
2023-05-31T17:15:51.571Z,2.20
2023-05-31T17:18:09.044Z,2.08
2023-05-31T17:20:26.001Z,2.00
2023-05-31T17:22:42.887Z,2.15
2023-05-31T17:24:59.813Z,2.40
2023-05-31T17:27:16.734Z,2.05
2023-05-31T17:29:33.634Z,2.20
2023-05-31T17:31:50.601Z,2.03
2023-05-31T17:34:07.588Z,2.40
2023-05-31T17:36:25.087Z,2.00
2023-05-31T17:38:41.975Z,2.30
2023-05-31T17:40:58.913Z,2.20
2023-05-31T17:43:15.858Z,1.90
2023-05-31T17:45:33.259Z,2.35
2023-05-31T17:47:50.197Z,2.00
2023-05-31T17:50:07.095Z,2.10
2023-05-31T17:52:24.439Z,2.10
2023-05-31T17:54:41.377Z,2.10
2023-05-31T17:56:58.304Z,2.30
2023-05-31T17:59:15.208Z,1.98
2023-05-31T18:01:33.423Z,2.20
2023-05-31T18:03:50.442Z,2.38
2023-05-31T18:06:07.357Z,1.98
2023-05-31T18:08:24.258Z,2.20
2023-05-31T18:10:41.149Z,2.20
2023-05-31T18:12:58.061Z,2.13
2023-05-31T18:15:14.941Z,2.15
2023-05-31T18:17:31.867Z,2.30
2023-05-31T18:19:48.818Z,2.00
2023-05-31T18:22:05.826Z,2.38
2023-05-31T18:24:22.776Z,2.38
2023-05-31T18:26:39.716Z,2.10
2023-05-31T18:28:56.608Z,2.28
2023-05-31T18:31:13.617Z,2.00
2023-05-31T18:33:30.584Z,2.42
2023-05-31T18:35:47.663Z,2.38
2023-05-31T18:38:05.040Z,2.22
2023-05-31T18:40:22.005Z,2.10
2023-05-31T18:42:39.459Z,2.47
2023-05-31T18:44:56.397Z,2.47
2023-05-31T18:47:13.457Z,2.20
2023-05-31T18:49:30.473Z,2.20
2023-05-31T18:51:47.350Z,2.42
2023-05-31T18:54:04.243Z,2.15
2023-05-31T18:56:21.134Z,2.33
2023-05-31T18:58:38.092Z,2.15
2023-05-31T19:00:55.066Z,1.98
2023-05-31T19:03:12.177Z,1.95
2023-05-31T19:05:29.228Z,2.30
2023-05-31T19:07:46.164Z,2.17
2023-05-31T19:10:03.547Z,2.15
2023-05-31T19:12:30.787Z,2.00
2023-05-31T19:14:48.861Z,2.55
2023-05-31T19:17:05.981Z,2.30
2023-05-31T19:19:23.037Z,2.13
2023-05-31T19:21:39.976Z,1.85
2023-05-31T19:23:56.900Z,2.08
2023-05-31T19:26:13.779Z,2.42
2023-05-31T19:28:30.656Z,2.05
2023-05-31T19:30:47.519Z,2.20
2023-05-31T19:33:04.508Z,2.50
2023-05-31T19:35:21.524Z,2.10
2023-05-31T19:37:38.414Z,2.13
2023-05-31T19:39:55.689Z,2.42
2023-05-31T19:42:12.653Z,2.20
2023-05-31T19:44:29.626Z,2.53
2023-05-31T19:46:46.618Z,2.20
2023-05-31T19:49:03.616Z,2.33
2023-05-31T19:51:20.553Z,2.20
2023-05-31T19:53:37.525Z,2.33
2023-05-31T19:55:54.450Z,2.50
2023-05-31T19:58:11.377Z,2.15
2023-05-31T20:00:28.271Z,2.20
2023-05-31T20:02:45.350Z,2.33
2023-05-31T20:05:02.385Z,2.20
2023-05-31T20:07:19.312Z,2.40
2023-05-31T20:09:36.224Z,2.25
2023-05-31T20:11:53.179Z,2.38
2023-05-31T20:14:10.259Z,2.55
2023-05-31T20:16:27.220Z,2.67
2023-05-31T20:18:44.161Z,2.67
2023-05-31T20:21:01.085Z,2.90
2023-05-31T20:23:17.970Z,2.60
2023-05-31T20:25:34.889Z,2.40
2023-05-31T20:27:51.797Z,2.40
2023-05-31T20:30:08.727Z,2.40
2023-05-31T20:32:25.670Z,2.50
2023-05-31T20:34:42.586Z,2.40
2023-05-31T20:36:59.482Z,2.40
2023-05-31T20:39:16.422Z,2.50
2023-05-31T20:41:33.324Z,2.30
2023-05-31T20:43:50.225Z,2.28
2023-05-31T20:46:07.463Z,2.28
2023-05-31T20:48:24.621Z,2.50
2023-05-31T20:50:41.491Z,2.70
2023-05-31T20:52:58.879Z,2.60
2023-05-31T20:55:16.792Z,2.35
2023-05-31T20:57:35.452Z,2.58
2023-05-31T20:59:55.404Z,2.40
2023-05-31T21:02:12.953Z,2.55
2023-05-31T21:04:30.444Z,2.33
2023-05-31T21:06:47.975Z,2.40
2023-05-31T21:09:05.297Z,2.40
2023-05-31T21:11:22.741Z,2.50
2023-05-31T21:13:40.598Z,2.65
2023-05-31T21:15:58.736Z,2.70
2023-05-31T21:18:16.479Z,2.45
2023-05-31T21:20:33.455Z,2.20
2023-05-31T21:22:50.390Z,2.28
2023-05-31T21:25:07.322Z,2.90
2023-05-31T21:27:24.205Z,2.50
2023-05-31T21:29:41.616Z,2.50
2023-05-31T21:31:58.685Z,2.80
2023-05-31T21:34:15.646Z,2.50
2023-05-31T21:36:32.558Z,2.55
2023-05-31T21:38:49.971Z,2.58
2023-05-31T21:41:08.289Z,2.33
2023-05-31T21:43:25.951Z,2.38
2023-05-31T21:45:42.851Z,2.50
2023-05-31T21:47:59.825Z,2.65
2023-05-31T21:50:16.732Z,2.60
2023-05-31T21:52:33.763Z,2.33
2023-05-31T21:54:50.703Z,2.60
2023-05-31T21:57:08.153Z,2.67
2023-05-31T21:59:25.046Z,2.55
2023-05-31T22:01:42.064Z,2.40
2023-05-31T22:03:59.032Z,2.83
2023-05-31T22:06:15.952Z,2.42
2023-05-31T22:08:32.901Z,2.50
2023-05-31T22:10:49.847Z,2.00
2023-05-31T22:13:06.747Z,2.55
2023-05-31T22:15:23.646Z,2.33
2023-05-31T22:17:41.161Z,2.53
2023-05-31T22:19:58.187Z,2.60
2023-05-31T22:22:15.099Z,2.40
2023-05-31T22:24:32.026Z,2.72
2023-05-31T22:26:49.003Z,2.33
2023-05-31T22:29:05.931Z,2.83
2023-05-31T22:31:23.249Z,2.60
2023-05-31T22:33:40.208Z,2.40
2023-05-31T22:35:57.103Z,2.50
2023-05-31T22:38:14.034Z,2.70
2023-05-31T22:40:30.939Z,2.60
2023-05-31T22:42:47.834Z,2.30
2023-05-31T22:45:04.730Z,2.70
2023-05-31T22:47:21.624Z,2.90
2023-05-31T22:49:38.496Z,2.50
2023-05-31T22:51:55.355Z,2.80
2023-05-31T22:54:12.763Z,2.63
2023-05-31T22:56:29.730Z,2.75
2023-05-31T22:58:46.616Z,2.70
2023-05-31T23:01:03.981Z,2.65
2023-05-31T23:03:20.959Z,2.63
2023-05-31T23:05:38.340Z,3.00
2023-05-31T23:07:55.320Z,2.70
2023-05-31T23:10:12.717Z,2.85
2023-05-31T23:12:29.646Z,2.83
2023-05-31T23:14:46.551Z,2.70
2023-05-31T23:17:03.915Z,2.75
2023-05-31T23:19:20.836Z,2.80
2023-05-31T23:21:38.290Z,2.88
2023-05-31T23:23:55.271Z,2.80
2023-05-31T23:26:12.152Z,2.58
2023-05-31T23:28:29.036Z,2.80
2023-05-31T23:30:45.920Z,2.85
2023-05-31T23:33:02.946Z,2.90
2023-05-31T23:35:19.947Z,2.83
2023-05-31T23:37:37.380Z,2.80
2023-05-31T23:39:54.332Z,2.70
2023-05-31T23:42:11.309Z,2.83
2023-05-31T23:44:28.190Z,2.63
2023-05-31T23:46:45.126Z,3.03
2023-05-31T23:49:04.103Z,2.70
2023-05-31T23:51:21.521Z,2.65
2023-05-31T23:53:38.478Z,3.10
2023-05-31T23:55:55.414Z,2.67
2023-05-31T23:58:12.344Z,2.58
